Time;durP1;ratioP1;P1;durP2;ratioP2;P2;SDS_P1;SDS_P2;PMS_P1;PMS_P2;Temp;Humidity;BMP_temperature;BMP_pressure;BME280_temperature;BME280_humidity;BME280_pressure;Samples;Min_cycle;Max_cycle;Signal;HPM_P1;HPM_P2
2021/05/08 00:01:46;;;;;;;11.27;8.40;;;4.70;92.80;;;;;;6215075;23;20005;-67
2021/05/08 00:04:12;;;;;;;10.43;9.32;;;4.70;92.80;;;;;;6213293;23;20303;-69
2021/05/08 00:06:37;;;;;;;11.20;8.75;;;4.70;92.80;;;;;;6214695;23;20497;-67
2021/05/08 00:09:07;;;;;;;13.88;9.57;;;4.60;92.90;;;;;;6214805;23;20004;-68
2021/05/08 00:11:35;;;;;;;10.82;9.13;;;4.60;93.00;;;;;;6214397;23;20047;-66
2021/05/08 00:14:01;;;;;;;11.38;9.50;;;4.60;93.00;;;;;;6214764;23;20000;-66
2021/05/08 00:16:27;;;;;;;11.60;9.52;;;4.50;93.00;;;;;;6215389;23;20017;-73
2021/05/08 00:18:53;;;;;;;9.70;8.57;;;4.50;93.10;;;;;;6213825;23;20418;-70
2021/05/08 00:21:18;;;;;;;11.57;8.73;;;4.50;93.10;;;;;;6214782;23;20007;-66
2021/05/08 00:23:44;;;;;;;12.82;9.68;;;4.50;93.20;;;;;;6213030;23;20016;-71
2021/05/08 00:26:09;;;;;;;12.00;8.82;;;4.50;93.20;;;;;;6213849;23;20413;-69
2021/05/08 00:28:35;;;;;;;10.10;8.43;;;4.40;93.20;;;;;;6215153;23;20001;-70
2021/05/08 00:31:01;;;;;;;11.10;8.98;;;4.40;93.20;;;;;;6214734;23;19997;-69
2021/05/08 00:33:26;;;;;;;9.88;8.80;;;4.40;93.20;;;;;;6214011;23;20009;-67
2021/05/08 00:35:52;;;;;;;10.40;8.98;;;4.30;93.20;;;;;;6212944;23;20087;-71
2021/05/08 00:38:17;;;;;;;10.82;9.27;;;4.30;93.30;;;;;;6214328;23;19997;-71
2021/05/08 00:40:43;;;;;;;9.52;8.43;;;4.30;93.40;;;;;;6213668;23;20012;-64
2021/05/08 00:43:09;;;;;;;10.27;9.15;;;4.30;93.40;;;;;;6212870;23;20027;-69
2021/05/08 00:45:34;;;;;;;12.85;9.35;;;4.30;93.50;;;;;;6214611;23;20378;-67
2021/05/08 00:48:09;;;;;;;14.27;10.05;;;4.20;93.50;;;;;;6213639;23;20035;-67
2021/05/08 00:50:34;;;;;;;13.48;10.77;;;4.30;93.70;;;;;;6214519;23;20008;-68
2021/05/08 00:53:01;;;;;;;10.75;9.52;;;4.30;93.80;;;;;;6214417;23;20023;-65
2021/05/08 00:55:27;;;;;;;11.70;9.43;;;4.40;93.80;;;;;;6213928;23;20091;-69
2021/05/08 00:57:53;;;;;;;12.27;10.02;;;4.40;93.70;;;;;;6214344;23;20431;-68
2021/05/08 01:00:20;;;;;;;12.18;10.40;;;4.40;93.70;;;;;;6214472;23;20016;-70
2021/05/08 01:02:46;;;;;;;11.90;10.48;;;4.40;93.60;;;;;;6212031;23;20001;-69
2021/05/08 01:05:13;;;;;;;12.18;9.52;;;4.30;93.60;;;;;;6212756;23;20012;-66
2021/05/08 01:07:39;;;;;;;10.75;9.27;;;4.30;93.60;;;;;;6214376;23;19996;-67
2021/05/08 01:10:07;;;;;;;12.40;11.10;;;4.20;93.60;;;;;;6213438;23;20000;-67
2021/05/08 01:12:33;;;;;;;12.90;10.18;;;4.20;93.60;;;;;;6214421;23;20428;-69
2021/05/08 01:14:59;;;;;;;13.50;9.20;;;4.20;93.70;;;;;;6213519;23;20004;-67
2021/05/08 01:17:26;;;;;;;10.75;9.65;;;4.10;93.70;;;;;;6214666;23;20430;-70
2021/05/08 01:19:51;;;;;;;12.23;9.88;;;4.10;93.70;;;;;;6214208;23;20001;-70
2021/05/08 01:22:17;;;;;;;13.73;10.15;;;4.10;93.80;;;;;;6211828;23;20043;-65
2021/05/08 01:24:42;;;;;;;11.27;10.07;;;4.00;93.80;;;;;;6214144;23;20042;-65
2021/05/08 01:27:08;;;;;;;13.77;10.15;;;4.00;93.90;;;;;;6214272;23;20008;-66
2021/05/08 01:29:33;;;;;;;11.15;10.02;;;4.00;93.90;;;;;;6213364;23;20421;-66
2021/05/08 01:31:59;;;;;;;11.43;10.05;;;4.00;93.90;;;;;;6212485;23;20448;-66
2021/05/08 01:34:25;;;;;;;13.60;10.43;;;4.00;93.90;;;;;;6214355;23;20000;-65
2021/05/08 01:36:50;;;;;;;11.52;10.02;;;4.00;94.00;;;;;;6213406;23;20066;-65
2021/05/08 01:39:16;;;;;;;13.50;10.70;;;4.00;94.00;;;;;;6214109;23;20008;-65
2021/05/08 01:41:41;;;;;;;11.35;10.20;;;4.00;94.00;;;;;;6214140;23;20120;-70
2021/05/08 01:44:09;;;;;;;11.32;10.15;;;4.00;94.00;;;;;;6212717;23;20018;-65
2021/05/08 01:46:36;;;;;;;11.07;9.70;;;4.00;94.00;;;;;;6214213;23;20036;-69
2021/05/08 01:49:02;;;;;;;11.63;10.15;;;4.00;94.00;;;;;;6187695;23;20413;-69
2021/05/08 01:51:28;;;;;;;12.30;10.85;;;3.90;94.10;;;;;;6213410;23;20004;-68
2021/05/08 01:53:53;;;;;;;13.02;10.75;;;3.90;94.10;;;;;;6213968;23;20055;-64
2021/05/08 01:56:19;;;;;;;13.55;10.48;;;3.90;94.10;;;;;;6212400;23;20092;-69
2021/05/08 01:58:44;;;;;;;13.25;11.25;;;3.90;94.10;;;;;;6213266;23;20007;-64
2021/05/08 02:01:10;;;;;;;15.20;11.27;;;3.90;94.10;;;;;;6212427;23;20004;-65
2021/05/08 02:03:35;;;;;;;14.43;11.82;;;3.80;94.10;;;;;;6213953;23;19997;-65
2021/05/08 02:06:02;;;;;;;13.57;10.88;;;3.80;94.10;;;;;;6213225;23;20004;-65
2021/05/08 02:08:27;;;;;;;15.45;11.77;;;3.80;94.10;;;;;;6212843;23;20009;-65
2021/05/08 02:10:53;;;;;;;12.73;11.35;;;3.80;94.10;;;;;;6214015;23;20023;-64
2021/05/08 02:13:18;;;;;;;14.23;12.73;;;3.80;94.20;;;;;;6213017;23;20005;-65
2021/05/08 02:15:44;;;;;;;12.98;11.27;;;3.80;94.20;;;;;;6213969;23;20329;-64
2021/05/08 02:18:10;;;;;;;15.10;12.68;;;3.80;94.20;;;;;;6213097;23;20001;-67
2021/05/08 02:20:41;;;;;;;13.48;12.05;;;3.80;94.20;;;;;;6213794;23;20001;-65
2021/05/08 02:23:09;;;;;;;16.60;12.45;;;3.80;94.30;;;;;;6213924;23;20318;-67
2021/05/08 02:25:35;;;;;;;14.68;12.27;;;3.80;94.30;;;;;;6213133;23;20537;-67
2021/05/08 02:28:01;;;;;;;13.35;11.95;;;3.90;94.40;;;;;;6213888;23;20491;-70
2021/05/08 02:30:32;;;;;;;15.10;13.25;;;3.90;94.40;;;;;;6214337;23;20008;-72
2021/05/08 02:32:58;;;;;;;14.50;12.10;;;3.90;94.40;;;;;;6213080;23;20000;-70
2021/05/08 02:35:24;;;;;;;15.38;12.70;;;4.00;94.40;;;;;;6214020;23;20020;-71
2021/05/08 02:37:51;;;;;;;15.02;13.07;;;4.10;94.50;;;;;;6213828;23;20028;-66
2021/05/08 02:40:19;;;;;;;16.13;13.35;;;4.20;94.50;;;;;;6211535;23;20448;-71
2021/05/08 02:42:45;;;;;;;13.82;12.40;;;4.30;94.50;;;;;;6213557;23;20054;-65
2021/05/08 02:45:12;;;;;;;14.40;12.48;;;4.30;94.50;;;;;;6213553;23;20016;-64
2021/05/08 02:47:39;;;;;;;13.93;12.18;;;4.40;94.50;;;;;;6213020;23;19996;-64
2021/05/08 02:50:05;;;;;;;16.10;12.48;;;4.40;94.50;;;;;;6213589;23;20005;-64
2021/05/08 02:52:31;;;;;;;20.25;13.73;;;4.40;94.60;;;;;;6214078;23;19997;-64
2021/05/08 02:54:57;;;;;;;15.75;12.40;;;4.50;94.60;;;;;;6212993;23;20067;-70
2021/05/08 02:57:22;;;;;;;14.20;12.43;;;4.60;94.70;;;;;;6214197;23;20005;-71
2021/05/08 02:59:48;;;;;;;15.18;12.68;;;4.60;94.70;;;;;;6213728;23;20487;-65
2021/05/08 03:02:13;;;;;;;19.52;15.05;;;4.70;94.60;;;;;;6213751;23;20016;-65
2021/05/08 03:04:39;;;;;;;18.85;13.65;;;4.80;94.60;;;;;;6215324;23;20000;-72
2021/05/08 03:07:05;;;;;;;16.65;14.88;;;5.00;94.50;;;;;;6215444;23;20051;-64
2021/05/08 03:09:32;;;;;;;16.83;14.00;;;5.00;94.50;;;;;;6214872;23;20001;-64
2021/05/08 03:11:59;;;;;;;14.73;12.70;;;5.10;94.50;;;;;;6215662;23;20372;-64
2021/05/08 03:14:25;;;;;;;14.60;12.65;;;5.10;94.50;;;;;;6213404;23;20091;-65
2021/05/08 03:16:51;;;;;;;14.82;13.32;;;5.20;94.50;;;;;;6215384;23;20016;-66
2021/05/08 03:19:17;;;;;;;14.52;12.73;;;5.20;94.70;;;;;;6215438;23;20544;-65
2021/05/08 03:21:42;;;;;;;16.08;13.52;;;5.20;94.50;;;;;;6212751;23;20005;-64
2021/05/08 03:24:08;;;;;;;16.13;14.45;;;5.30;94.50;;;;;;6215234;23;19996;-68
2021/05/08 03:26:34;;;;;;;15.57;13.45;;;5.40;94.50;;;;;;6213756;23;20086;-65
2021/05/08 03:29:00;;;;;;;17.58;13.98;;;5.40;94.40;;;;;;6214523;23;20052;-68
2021/05/08 03:31:25;;;;;;;16.55;14.75;;;5.40;94.40;;;;;;6214266;23;20402;-64
2021/05/08 03:33:51;;;;;;;18.73;14.90;;;5.40;94.30;;;;;;6215109;23;20000;-66
2021/05/08 03:36:17;;;;;;;17.70;15.23;;;5.30;94.30;;;;;;6212705;23;20414;-66
2021/05/08 03:38:43;;;;;;;15.43;13.82;;;5.30;94.30;;;;;;6215402;23;20026;-65
2021/05/08 03:41:08;;;;;;;16.55;14.52;;;5.20;94.40;;;;;;6213762;23;20083;-65
2021/05/08 03:43:34;;;;;;;16.02;14.23;;;5.10;94.40;;;;;;6214428;23;20055;-65
2021/05/08 03:45:59;;;;;;;15.95;13.70;;;5.10;94.50;;;;;;6215108;23;20005;-67
2021/05/08 03:48:25;;;;;;;17.23;13.52;;;5.10;94.50;;;;;;6213848;23;20413;-64
2021/05/08 03:50:52;;;;;;;14.95;13.35;;;5.20;94.50;;;;;;6214242;23;20012;-65
2021/05/08 03:53:21;;;;;;;16.98;14.75;;;5.20;94.40;;;;;;6214967;23;20044;-65
2021/05/08 03:55:48;;;;;;;16.88;13.55;;;5.30;94.40;;;;;;6214968;23;20402;-67
2021/05/08 03:58:13;;;;;;;18.02;13.50;;;5.30;94.30;;;;;;6214230;23;19997;-68
2021/05/08 04:00:39;;;;;;;17.13;14.35;;;5.30;94.30;;;;;;6215449;23;20011;-69
2021/05/08 04:03:04;;;;;;;17.05;14.40;;;5.30;94.20;;;;;;6213565;23;20007;-67
2021/05/08 04:05:31;;;;;;;18.23;14.82;;;5.30;94.20;;;;;;6214730;23;20007;-69
2021/05/08 04:07:57;;;;;;;15.93;14.32;;;5.20;94.20;;;;;;6215286;23;20001;-71
2021/05/08 04:10:23;;;;;;;18.88;14.93;;;5.10;94.30;;;;;;6215364;23;20024;-70
2021/05/08 04:12:49;;;;;;;16.65;14.85;;;5.10;94.30;;;;;;6213586;23;20050;-68
2021/05/08 04:15:14;;;;;;;19.83;15.52;;;5.00;94.30;;;;;;6214704;23;20047;-66
2021/05/08 04:17:40;;;;;;;17.05;14.85;;;4.90;94.60;;;;;;6214830;23;20032;-65
2021/05/08 04:20:06;;;;;;;16.30;14.57;;;4.80;94.30;;;;;;6213498;23;20380;-67
2021/05/08 04:22:31;;;;;;;16.98;14.85;;;4.80;94.40;;;;;;6214576;23;20007;-65
2021/05/08 04:24:57;;;;;;;16.25;14.48;;;4.70;94.40;;;;;;6213996;23;20011;-69
2021/05/08 04:27:23;;;;;;;19.80;16.23;;;4.70;94.50;;;;;;6214895;23;20000;-70
2021/05/08 04:29:48;;;;;;;16.75;14.98;;;4.60;94.50;;;;;;6214805;23;20025;-66
2021/05/08 04:32:14;;;;;;;18.23;16.05;;;4.60;94.50;;;;;;6212317;23;20008;-65
2021/05/08 04:34:39;;;;;;;21.48;16.48;;;4.70;94.60;;;;;;6214543;23;20000;-71
2021/05/08 04:37:05;;;;;;;19.42;17.33;;;4.70;94.70;;;;;;6214538;23;20009;-66
2021/05/08 04:39:30;;;;;;;19.58;16.52;;;4.80;94.60;;;;;;6213598;23;20007;-64
2021/05/08 04:41:56;;;;;;;20.13;17.95;;;4.90;94.60;;;;;;6214142;23;20326;-67
2021/05/08 04:44:23;;;;;;;20.60;16.70;;;5.00;94.50;;;;;;6214454;23;20039;-64
2021/05/08 04:46:49;;;;;;;20.58;17.85;;;5.10;94.50;;;;;;6212366;23;19997;-64
2021/05/08 04:49:15;;;;;;;22.40;18.85;;;5.20;94.40;;;;;;6213009;23;20376;-64
2021/05/08 04:51:41;;;;;;;26.00;19.23;;;5.30;94.50;;;;;;6214581;23;20079;-64
2021/05/08 04:54:06;;;;;;;24.42;19.95;;;5.50;94.50;;;;;;6213526;23;20027;-64
2021/05/08 04:56:32;;;;;;;22.63;18.67;;;5.70;94.50;;;;;;6214376;23;20017;-64
2021/05/08 04:58:57;;;;;;;25.88;20.30;;;5.90;94.40;;;;;;6214406;23;20054;-64
2021/05/08 05:01:23;;;;;;;23.00;18.80;;;6.00;94.60;;;;;;6212049;23;20170;-65
2021/05/08 05:03:48;;;;;;;21.42;19.13;;;6.20;94.50;;;;;;6212637;23;20022;-67
2021/05/08 05:06:14;;;;;;;21.83;17.95;;;6.40;94.10;;;;;;6214238;23;20377;-67
2021/05/08 05:08:39;;;;;;;22.63;18.55;;;6.50;94.10;;;;;;6211724;23;20492;-65
2021/05/08 05:11:05;;;;;;;22.80;18.17;;;6.60;94.00;;;;;;6214156;23;20008;-68
2021/05/08 05:13:31;;;;;;;23.73;17.48;;;6.60;93.90;;;;;;6212395;23;20000;-66
2021/05/08 05:15:56;;;;;;;21.38;16.88;;;6.60;93.80;;;;;;6212020;23;20480;-68
2021/05/08 05:18:22;;;;;;;20.40;16.13;;;6.70;93.80;;;;;;6213008;23;20006;-71
2021/05/08 05:20:47;;;;;;;17.83;15.98;;;6.80;93.80;;;;;;6214177;23;20000;-68
2021/05/08 05:23:14;;;;;;;20.45;16.80;;;6.90;93.70;;;;;;6213373;23;20010;-69
2021/05/08 05:25:39;;;;;;;18.42;16.30;;;7.00;93.60;;;;;;6214068;23;20001;-67
2021/05/08 05:28:19;;;;;;;18.85;15.60;;;7.00;93.50;;;;;;6213208;23;20475;-66
2021/05/08 05:30:45;;;;;;;18.60;15.82;;;7.10;93.40;;;;;;6214145;23;20005;-64
2021/05/08 05:33:10;;;;;;;17.77;15.88;;;7.00;93.30;;;;;;6214145;23;20023;-70
2021/05/08 05:35:36;;;;;;;20.40;16.90;;;7.00;93.30;;;;;;6213741;23;20451;-64
2021/05/08 05:38:01;;;;;;;19.55;15.73;;;7.10;93.40;;;;;;6214180;23;20430;-69
2021/05/08 05:40:27;;;;;;;19.27;16.20;;;7.20;93.40;;;;;;6214475;23;20036;-70
2021/05/08 05:42:52;;;;;;;21.40;15.95;;;7.40;93.30;;;;;;6213014;23;20433;-67
2021/05/08 05:45:18;;;;;;;18.48;15.38;;;7.50;93.10;;;;;;6213943;23;20012;-70
2021/05/08 05:47:45;;;;;;;16.77;14.80;;;7.70;93.00;;;;;;6214044;23;20449;-66
2021/05/08 05:50:10;;;;;;;18.40;16.02;;;7.80;92.80;;;;;;6213212;23;20004;-66
2021/05/08 05:52:36;;;;;;;17.00;15.20;;;8.00;92.70;;;;;;6212094;23;20000;-67
2021/05/08 05:55:02;;;;;;;18.30;15.18;;;8.00;92.50;;;;;;6213788;23;20014;-66
2021/05/08 05:57:28;;;;;;;17.50;15.63;;;8.10;92.20;;;;;;6213469;23;20001;-68
2021/05/08 05:59:53;;;;;;;17.25;15.32;;;8.20;92.00;;;;;;6214056;23;20000;-71
2021/05/08 06:02:19;;;;;;;17.55;14.88;;;8.40;91.60;;;;;;6214006;23;20012;-66
2021/05/08 06:04:44;;;;;;;16.13;14.43;;;8.60;91.60;;;;;;6211604;23;20410;-70
2021/05/08 06:07:10;;;;;;;16.88;13.93;;;8.70;91.50;;;;;;6214084;23;20330;-65
2021/05/08 06:09:35;;;;;;;16.95;13.82;;;8.90;91.40;;;;;;6213899;23;20076;-68
2021/05/08 06:12:01;;;;;;;14.40;12.27;;;8.90;90.90;;;;;;6213303;23;20489;-69
2021/05/08 06:14:27;;;;;;;16.38;13.25;;;9.00;90.60;;;;;;6214346;23;20009;-65
2021/05/08 06:16:56;;;;;;;14.55;12.77;;;9.10;90.40;;;;;;6213404;23;20036;-69
2021/05/08 06:19:23;;;;;;;14.52;12.27;;;9.30;90.30;;;;;;6210045;23;20095;-66
2021/05/08 06:21:49;;;;;;;15.20;12.68;;;9.50;90.30;;;;;;6213068;23;20054;-66
2021/05/08 06:24:15;;;;;;;14.10;11.77;;;9.60;90.00;;;;;;6212982;23;20028;-65
2021/05/08 06:26:40;;;;;;;14.80;11.95;;;9.80;89.90;;;;;;6211341;23;20004;-65
2021/05/08 06:29:06;;;;;;;14.50;11.68;;;9.80;89.30;;;;;;6213873;23;20059;-69
2021/05/08 06:31:31;;;;;;;13.50;10.90;;;9.90;88.80;;;;;;6213159;23;20000;-68
2021/05/08 06:33:57;;;;;;;18.58;11.57;;;10.00;88.30;;;;;;6213794;23;19997;-66
2021/05/08 06:36:23;;;;;;;13.65;11.20;;;10.10;88.20;;;;;;6214357;23;20087;-65
2021/05/08 06:38:49;;;;;;;14.25;12.75;;;10.10;88.20;;;;;;6214925;23;19996;-71
2021/05/08 06:41:15;;;;;;;12.93;11.32;;;10.20;88.20;;;;;;6215660;23;20353;-68
2021/05/08 06:43:41;;;;;;;13.15;11.75;;;10.30;86.90;;;;;;6213820;23;20020;-71
2021/05/08 06:46:10;;;;;;;12.57;11.05;;;10.40;86.70;;;;;;6214940;23;20008;-68
2021/05/08 06:48:36;;;;;;;13.48;10.90;;;10.50;86.60;;;;;;6215743;23;20059;-66
2021/05/08 06:51:05;;;;;;;13.90;11.40;;;10.60;85.40;;;;;;6215634;23;20024;-70
2021/05/08 06:53:31;;;;;;;12.73;10.65;;;10.70;84.90;;;;;;6214744;23;20067;-71
2021/05/08 06:55:56;;;;;;;10.63;9.45;;;10.90;84.60;;;;;;6215639;23;20039;-70
2021/05/08 06:58:22;;;;;;;11.75;9.55;;;11.00;83.20;;;;;;6215822;23;20000;-66
2021/05/08 07:00:47;;;;;;;12.52;10.52;;;11.10;81.90;;;;;;6213211;23;20008;-71
2021/05/08 07:03:13;;;;;;;13.30;10.65;;;11.20;81.80;;;;;;6215461;23;20004;-74
2021/05/08 07:05:38;;;;;;;11.48;10.27;;;11.30;81.60;;;;;;6215610;23;20001;-72
2021/05/08 07:08:07;;;;;;;12.65;10.07;;;11.30;81.20;;;;;;6214848;23;20023;-67
2021/05/08 07:10:33;;;;;;;13.38;11.48;;;11.30;80.70;;;;;;6214887;23;20484;-68
2021/05/08 07:12:59;;;;;;;12.18;10.77;;;11.40;80.10;;;;;;6215353;23;20039;-65
2021/05/08 07:15:24;;;;;;;13.27;10.82;;;11.40;79.50;;;;;;6213367;23;20005;-68
2021/05/08 07:18:04;;;;;;;11.77;10.20;;;11.50;79.30;;;;;;6215237;23;20005;-69
2021/05/08 07:20:30;;;;;;;12.48;10.20;;;11.60;79.50;;;;;;6215559;23;20024;-67
2021/05/08 07:22:56;;;;;;;14.20;10.65;;;11.60;79.00;;;;;;6214338;23;20080;-72
2021/05/08 07:25:22;;;;;;;11.57;10.27;;;11.70;78.50;;;;;;6215658;23;20094;-70
2021/05/08 07:27:47;;;;;;;11.05;9.80;;;11.80;77.90;;;;;;6214545;23;20034;-67
2021/05/08 07:30:13;;;;;;;12.70;10.13;;;11.90;77.80;;;;;;6215269;23;20413;-65
2021/05/08 07:32:39;;;;;;;12.65;10.20;;;12.00;78.30;;;;;;6215329;23;20001;-65
2021/05/08 07:35:06;;;;;;;11.63;10.07;;;12.20;77.70;;;;;;6214240;23;20007;-64
2021/05/08 07:37:31;;;;;;;12.52;11.02;;;12.30;76.70;;;;;;6215167;23;20058;-65
2021/05/08 07:39:57;;;;;;;16.15;9.98;;;12.40;75.80;;;;;;6213628;23;20424;-67
2021/05/08 07:42:23;;;;;;;12.20;9.40;;;12.50;75.80;;;;;;6214591;23;20012;-65
2021/05/08 07:44:48;;;;;;;13.52;9.00;;;12.60;75.70;;;;;;6214790;23;20020;-65
2021/05/08 07:47:14;;;;;;;14.00;9.18;;;12.70;74.80;;;;;;6213619;23;20004;-67
2021/05/08 07:49:39;;;;;;;12.40;9.13;;;12.80;74.80;;;;;;6213668;23;20003;-67
2021/05/08 07:52:06;;;;;;;11.43;8.57;;;13.00;73.90;;;;;;6215330;23;20075;-65
2021/05/08 07:54:32;;;;;;;10.75;7.72;;;13.10;73.50;;;;;;6214696;23;20012;-66
2021/05/08 07:56:57;;;;;;;12.50;7.97;;;13.20;72.80;;;;;;6214218;23;20008;-68
2021/05/08 07:59:23;;;;;;;9.00;7.38;;;13.30;71.60;;;;;;6215424;23;19997;-67
2021/05/08 08:01:49;;;;;;;9.70;8.38;;;13.30;71.10;;;;;;6214883;23;20076;-67
2021/05/08 08:04:14;;;;;;;9.43;7.65;;;13.40;72.30;;;;;;6214280;23;20008;-65
2021/05/08 08:06:40;;;;;;;10.00;7.10;;;13.40;73.50;;;;;;6214986;23;20000;-65
2021/05/08 08:09:05;;;;;;;11.68;7.57;;;13.50;73.00;;;;;;6213296;23;20000;-68
2021/05/08 08:11:31;;;;;;;13.23;7.35;;;13.50;72.80;;;;;;6214036;23;20008;-68
2021/05/08 08:13:57;;;;;;;9.65;6.57;;;13.40;73.10;;;;;;6213401;23;20323;-74
2021/05/08 08:16:22;;;;;;;9.05;6.65;;;13.40;71.10;;;;;;6215131;23;20008;-68
2021/05/08 08:18:48;;;;;;;10.00;7.20;;;13.40;69.40;;;;;;6213977;23;20008;-73
2021/05/08 08:21:14;;;;;;;11.27;7.30;;;13.40;69.70;;;;;;6214692;23;20075;-69
2021/05/08 08:23:40;;;;;;;9.50;6.45;;;13.50;70.00;;;;;;6214702;23;20051;-68
2021/05/08 08:26:05;;;;;;;8.13;6.85;;;13.50;69.40;;;;;;6213668;23;20004;-67
2021/05/08 08:28:31;;;;;;;8.73;7.15;;;13.50;69.00;;;;;;6214680;23;20076;-66
2021/05/08 08:30:56;;;;;;;8.65;6.82;;;13.60;69.80;;;;;;6213973;23;20036;-68
2021/05/08 08:33:22;;;;;;;11.18;7.07;;;13.60;70.00;;;;;;6215435;23;20003;-66
2021/05/08 08:35:47;;;;;;;7.90;6.80;;;13.70;68.70;;;;;;6214821;23;20091;-67
2021/05/08 08:38:14;;;;;;;8.18;6.95;;;13.80;68.70;;;;;;6213794;23;19997;-71
2021/05/08 08:40:40;;;;;;;8.23;7.13;;;13.80;68.60;;;;;;6214479;23;20000;-69
2021/05/08 08:43:05;;;;;;;9.20;7.07;;;13.90;67.90;;;;;;6212617;23;20016;-70
2021/05/08 08:45:31;;;;;;;9.18;6.88;;;13.90;68.60;;;;;;6213698;23;20062;-67
2021/05/08 08:47:57;;;;;;;8.77;7.15;;;14.00;68.20;;;;;;6214612;23;19996;-66
2021/05/08 08:50:24;;;;;;;8.30;7.13;;;14.00;68.30;;;;;;6214976;23;20008;-66
2021/05/08 08:52:50;;;;;;;9.10;7.03;;;14.10;68.50;;;;;;6213597;23;20830;-66
2021/05/08 08:55:16;;;;;;;8.40;6.85;;;14.30;67.40;;;;;;6214290;23;20009;-68
2021/05/08 08:57:44;;;;;;;7.78;6.30;;;14.40;66.90;;;;;;6213880;23;20072;-67
2021/05/08 09:00:15;;;;;;;8.70;6.50;;;14.50;65.60;;;;;;6213360;23;20001;-69
2021/05/08 09:02:46;;;;;;;7.85;6.10;;;14.50;65.60;;;;;;6215078;23;20000;-68
2021/05/08 09:05:16;;;;;;;8.48;7.15;;;14.60;64.80;;;;;;6214212;23;20043;-67
2021/05/08 09:07:44;;;;;;;9.65;6.70;;;14.60;65.30;;;;;;6213769;23;20058;-66
2021/05/08 09:10:19;;;;;;;9.90;6.90;;;14.70;64.70;;;;;;6212686;23;20019;-66
2021/05/08 09:12:46;;;;;;;7.32;6.50;;;14.90;66.20;;;;;;6212238;23;20007;-68
2021/05/08 09:15:12;;;;;;;8.40;6.18;;;15.00;65.40;;;;;;6213749;23;19997;-69
2021/05/08 09:17:44;;;;;;;7.88;5.82;;;15.20;63.80;;;;;;6214547;23;20008;-65
2021/05/08 09:20:11;;;;;;;9.10;5.68;;;15.40;62.50;;;;;;6213444;23;20321;-65
2021/05/08 09:22:41;;;;;;;7.65;5.32;;;15.60;61.80;;;;;;6214423;23;20001;-66
2021/05/08 09:25:19;;;;;;;7.80;5.68;;;15.80;61.40;;;;;;6213989;23;19996;-69
2021/05/08 09:27:58;;;;;;;6.13;4.93;;;15.90;60.80;;;;;;6213447;23;20012;-70
2021/05/08 09:30:29;;;;;;;8.82;5.70;;;16.00;60.40;;;;;;6214864;23;20032;-74
2021/05/08 09:32:54;;;;;;;6.57;5.13;;;16.10;60.60;;;;;;6213833;23;20004;-65
2021/05/08 09:35:28;;;;;;;10.68;5.63;;;16.10;59.70;;;;;;6211565;23;20008;-68
2021/05/08 09:38:11;;;;;;;9.23;6.00;;;16.20;60.60;;;;;;6212619;23;20016;-67
2021/05/08 09:40:37;;;;;;;9.00;6.03;;;16.30;61.50;;;;;;6214066;23;20004;-69
2021/05/08 09:43:11;;;;;;;9.30;6.30;;;16.30;59.60;;;;;;6212940;23;20341;-64
2021/05/08 09:45:39;;;;;;;5.97;5.07;;;16.20;59.70;;;;;;6214132;23;20029;-67
2021/05/08 09:48:26;;;;;;;9.13;5.28;;;16.10;60.20;;;;;;6213765;23;20306;-66
2021/05/08 09:50:51;;;;;;;7.28;5.60;;;16.00;60.60;;;;;;6213868;23;20349;-67
2021/05/08 09:53:28;;;;;;;8.43;5.40;;;16.00;60.60;;;;;;6213561;23;20085;-64
2021/05/08 09:55:54;;;;;;;7.78;4.90;;;16.00;59.40;;;;;;6213094;23;20016;-68
2021/05/08 09:58:26;;;;;;;6.75;4.53;;;16.00;60.00;;;;;;6213565;23;20009;-69
2021/05/08 10:00:53;;;;;;;5.93;4.70;;;16.10;61.20;;;;;;6212381;23;20453;-68
2021/05/08 10:03:20;;;;;;;8.35;5.13;;;16.30;60.50;;;;;;6212927;23;20008;-69
2021/05/08 10:06:02;;;;;;;6.85;4.82;;;16.50;59.30;;;;;;6213808;23;19996;-67
2021/05/08 10:08:28;;;;;;;7.45;4.60;;;16.60;58.70;;;;;;6214479;23;20414;-70
2021/05/08 10:10:54;;;;;;;9.18;4.85;;;16.80;59.50;;;;;;6212812;23;20037;-68
2021/05/08 10:13:20;;;;;;;7.78;5.03;;;16.90;58.30;;;;;;6214384;23;20019;-66
2021/05/08 10:15:47;;;;;;;6.20;4.43;;;16.90;57.80;;;;;;6215786;23;20087;-68
2021/05/08 10:18:13;;;;;;;6.55;4.60;;;17.00;58.10;;;;;;6213573;23;20029;-67
2021/05/08 10:20:39;;;;;;;5.15;4.60;;;17.00;58.10;;;;;;6215833;23;20000;-67
2021/05/08 10:23:08;;;;;;;7.78;4.60;;;17.10;56.60;;;;;;6215796;23;20023;-68
2021/05/08 10:25:37;;;;;;;5.55;4.22;;;17.10;55.30;;;;;;6214803;23;20001;-67
2021/05/08 10:28:04;;;;;;;6.13;4.90;;;17.10;56.60;;;;;;6215600;23;20013;-68
2021/05/08 10:30:33;;;;;;;8.35;4.05;;;17.20;57.40;;;;;;6213484;23;19996;-68
2021/05/08 10:33:00;;;;;;;4.50;2.60;;;17.20;56.70;;;;;;6214499;23;20421;-67
2021/05/08 10:35:39;;;;;;;3.95;2.47;;;17.20;57.00;;;;;;6213389;23;20036;-67
2021/05/08 10:38:20;;;;;;;5.03;2.90;;;17.10;57.50;;;;;;6214427;23;20091;-67
2021/05/08 10:40:53;;;;;;;5.75;3.45;;;17.20;57.40;;;;;;6214562;23;20299;-66
2021/05/08 10:43:50;;;;;;;6.38;3.30;;;17.20;56.40;;;;;;6213538;23;20353;-67
2021/05/08 10:46:17;;;;;;;3.08;2.55;;;17.30;56.60;;;;;;6190978;23;20024;-67
2021/05/08 10:49:09;;;;;;;4.93;2.92;;;17.40;55.40;;;;;;6215182;23;20036;-67
2021/05/08 10:51:55;;;;;;;4.32;2.85;;;17.20;55.40;;;;;;6212806;23;20012;-66
2021/05/08 10:54:43;;;;;;;5.05;3.35;;;17.20;55.70;;;;;;6215118;23;20028;-69
2021/05/08 10:57:20;;;;;;;4.75;2.50;;;17.10;56.80;;;;;;6214411;23;20008;-69
2021/05/08 11:00:04;;;;;;;4.93;2.80;;;17.20;57.50;;;;;;6212273;23;20460;-66
2021/05/08 11:02:44;;;;;;;5.70;3.30;;;17.30;59.00;;;;;;6215500;23;20047;-65
2021/05/08 11:05:20;;;;;;;4.35;3.10;;;17.30;58.90;;;;;;6215229;23;20005;-66
2021/05/08 11:07:46;;;;;;;6.63;3.33;;;17.20;58.70;;;;;;6212657;23;20000;-68
2021/05/08 11:10:33;;;;;;;5.60;3.25;;;17.10;59.20;;;;;;6215185;23;20001;-70
2021/05/08 11:13:14;;;;;;;5.45;3.33;;;16.90;59.20;;;;;;6214164;23;20220;-66
2021/05/08 11:18:43;;;;;;;4.55;3.40;;;16.40;61.90;;;;;;6214253;23;20326;-70
2021/05/08 11:21:12;;;;;;;6.88;3.80;;;16.20;61.30;;;;;;6212821;23;20032;-71
2021/05/08 11:23:49;;;;;;;5.85;3.55;;;15.90;59.90;;;;;;6215091;23;20020;-70
2021/05/08 11:26:20;;;;;;;6.72;3.78;;;15.70;62.10;;;;;;6215290;23;20009;-71
2021/05/08 11:28:59;;;;;;;3.83;2.92;;;15.70;63.40;;;;;;6214140;23;20000;-71
2021/05/08 11:31:46;;;;;;;4.10;3.30;;;15.70;64.00;;;;;;6215324;23;20009;-72
2021/05/08 11:34:31;;;;;;;7.07;3.50;;;15.70;64.50;;;;;;6213774;23;20054;-71
2021/05/08 11:37:12;;;;;;;5.53;3.58;;;15.70;64.40;;;;;;6215057;23;20087;-70
2021/05/08 11:39:40;;;;;;;5.13;3.65;;;15.80;66.40;;;;;;6215044;23;20026;-68
2021/05/08 11:42:19;;;;;;;4.93;3.72;;;15.90;67.50;;;;;;6214491;23;20004;-69
2021/05/08 11:44:55;;;;;;;6.90;3.70;;;15.90;67.40;;;;;;6213177;23;20059;-71
2021/05/08 11:47:35;;;;;;;4.95;3.25;;;15.80;67.70;;;;;;6215307;23;19996;-71
2021/05/08 11:50:13;;;;;;;5.50;3.47;;;15.70;67.50;;;;;;6212362;23;20005;-70
2021/05/08 11:52:44;;;;;;;4.00;3.00;;;15.50;68.50;;;;;;6214458;23;20028;-73
2021/05/08 11:55:16;;;;;;;4.75;3.58;;;15.40;68.80;;;;;;6213854;23;20007;-72
2021/05/08 11:57:46;;;;;;;6.90;3.30;;;15.20;69.80;;;;;;6211466;23;20008;-71
2021/05/08 12:00:19;;;;;;;4.78;3.40;;;15.10;72.10;;;;;;6214249;23;20469;-73
2021/05/08 12:02:45;;;;;;;5.10;3.60;;;15.00;73.10;;;;;;6211973;23;20030;-71
2021/05/08 12:05:11;;;;;;;4.32;3.25;;;14.90;74.10;;;;;;6213499;23;20433;-70
2021/05/08 12:07:43;;;;;;;6.20;3.67;;;14.90;75.80;;;;;;6214190;23;20016;-80
2021/05/08 12:10:14;;;;;;;;;;;14.80;77.90;;;;;;6212676;23;20001;-72
2021/05/08 12:12:53;;;;;;;6.20;4.40;;;14.70;77.20;;;;;;6214134;23;19907;-69
2021/05/08 12:15:26;;;;;;;4.15;3.47;;;14.60;78.00;;;;;;6209043;23;20009;-68
2021/05/08 12:17:53;;;;;;;4.93;3.88;;;14.30;78.50;;;;;;6213450;23;20092;-70
2021/05/08 12:20:21;;;;;;;5.78;3.75;;;14.20;79.60;;;;;;6214145;23;20456;-69
2021/05/08 12:22:48;;;;;;;6.63;4.57;;;14.10;80.80;;;;;;6213739;23;20004;-68
2021/05/08 12:25:21;;;;;;;4.32;3.80;;;14.00;81.40;;;;;;6213443;23;20001;-69
2021/05/08 12:27:47;;;;;;;6.75;4.70;;;13.80;82.90;;;;;;6214346;23;20001;-69
2021/05/08 12:30:14;;;;;;;6.95;4.68;;;13.80;83.60;;;;;;6212193;23;19997;-71
2021/05/08 12:32:52;;;;;;;6.22;4.50;;;13.70;84.50;;;;;;6214057;23;20000;-68
2021/05/08 12:35:25;;;;;;;8.75;4.50;;;13.60;85.90;;;;;;6213844;23;20004;-68
2021/05/08 12:37:50;;;;;;;7.90;4.82;;;13.60;86.00;;;;;;6213779;23;20024;-69
2021/05/08 12:40:16;;;;;;;9.48;4.72;;;13.60;87.00;;;;;;6213426;23;20003;-69
2021/05/08 12:42:47;;;;;;;5.50;4.90;;;13.60;87.30;;;;;;6209523;23;20012;-71
2021/05/08 12:45:14;;;;;;;7.30;4.53;;;13.70;88.00;;;;;;6213766;23;20008;-69
2021/05/08 12:47:45;;;;;;;7.05;5.03;;;13.70;87.90;;;;;;6213506;23;20001;-67